createdAt,value
2022-09-07T00:04:32.322Z,11.50
2022-09-07T00:09:39.349Z,13.77
2022-09-07T00:14:50.958Z,8.60
2022-09-07T00:19:58.714Z,8.93
2022-09-07T00:25:06.836Z,9.87
2022-09-07T00:30:14.268Z,9.00
2022-09-07T00:35:21.299Z,8.97
2022-09-07T00:40:28.237Z,8.97
2022-09-07T00:45:37.345Z,9.83
2022-09-07T00:50:54.434Z,8.77
2022-09-07T00:56:03.577Z,8.67
2022-09-07T01:01:11.565Z,7.90
2022-09-07T01:06:23.895Z,8.77
2022-09-07T01:11:33.304Z,7.70
2022-09-07T01:16:45.375Z,8.40
2022-09-07T01:22:12.124Z,8.03
2022-09-07T01:27:41.874Z,7.87
2022-09-07T01:33:12.256Z,8.77
2022-09-07T01:38:45.383Z,8.13
2022-09-07T01:44:09.027Z,8.47
2022-09-07T01:49:32.135Z,8.23
2022-09-07T01:54:49.675Z,9.00
2022-09-07T02:00:10.174Z,8.30
2022-09-07T02:05:29.806Z,8.27
2022-09-07T02:10:44.136Z,8.57
2022-09-07T02:16:00.952Z,8.20
2022-09-07T02:21:11.394Z,8.53
2022-09-07T02:26:25.065Z,8.23
2022-09-07T02:31:32.309Z,7.97
2022-09-07T02:36:43.484Z,7.60
2022-09-07T02:41:50.744Z,7.23
2022-09-07T02:47:14.335Z,7.90
2022-09-07T02:52:31.624Z,5.50
2022-09-07T02:57:43.395Z,8.57
2022-09-07T03:03:15.674Z,8.73
2022-09-07T03:08:41.996Z,9.03
2022-09-07T03:13:49.193Z,9.30
2022-09-07T03:19:01.126Z,8.03
2022-09-07T03:24:09.014Z,8.07
2022-09-07T03:29:16.275Z,8.20
2022-09-07T03:34:23.135Z,9.13
2022-09-07T03:39:31.332Z,8.43
2022-09-07T03:44:38.495Z,8.67
2022-09-07T03:49:45.445Z,8.87
2022-09-07T03:54:52.766Z,9.07
2022-09-07T03:59:59.874Z,9.37
2022-09-07T04:05:07.666Z,8.80
2022-09-07T04:10:14.488Z,8.87
2022-09-07T04:15:21.466Z,10.17
2022-09-07T04:20:32.185Z,9.83
2022-09-07T04:25:39.347Z,10.00
2022-09-07T04:30:46.930Z,10.03
2022-09-07T04:35:54.056Z,9.93
2022-09-07T04:41:11.178Z,10.03
2022-09-07T04:46:27.735Z,11.70
2022-09-07T04:51:35.455Z,9.73
2022-09-07T04:56:43.470Z,9.17
2022-09-07T05:01:50.414Z,8.97
2022-09-07T05:06:57.486Z,9.30
2022-09-07T05:12:04.936Z,9.53
2022-09-07T05:17:12.274Z,11.00
2022-09-07T05:22:19.865Z,10.10
2022-09-07T05:27:27.005Z,10.07
2022-09-07T05:32:33.845Z,9.27
2022-09-07T05:37:41.445Z,10.10
2022-09-07T05:42:48.639Z,10.23
2022-09-07T05:47:56.127Z,10.13
2022-09-07T05:53:03.646Z,9.77
2022-09-07T05:58:11.566Z,9.43
2022-09-07T06:03:18.837Z,9.97
2022-09-07T06:08:25.795Z,10.17
2022-09-07T06:13:32.928Z,10.43
2022-09-07T06:18:44.125Z,9.87
2022-09-07T06:23:52.055Z,9.87
2022-09-07T06:28:59.296Z,9.90
2022-09-07T06:34:06.424Z,10.43
2022-09-07T06:39:13.727Z,10.13
2022-09-07T06:44:21.026Z,10.27
2022-09-07T06:49:28.715Z,9.70
2022-09-07T06:59:44.511Z,9.80
2022-09-07T07:04:52.514Z,9.70
2022-09-07T07:09:59.685Z,10.50
2022-09-07T07:15:09.149Z,10.03
2022-09-07T07:20:18.366Z,9.93
2022-09-07T07:25:25.805Z,10.90
2022-09-07T07:30:32.966Z,10.83
2022-09-07T07:35:39.877Z,10.77
2022-09-07T07:45:57.402Z,11.60
2022-09-07T07:51:12.098Z,11.10
2022-09-07T07:56:17.708Z,11.83
2022-09-07T08:01:24.722Z,11.50
2022-09-07T08:06:31.956Z,12.37
2022-09-07T08:11:40.638Z,11.77
2022-09-07T08:16:47.969Z,11.83
2022-09-07T08:21:54.926Z,12.60
2022-09-07T08:27:02.216Z,12.33
2022-09-07T08:32:09.165Z,11.07
2022-09-07T08:37:16.015Z,10.87
2022-09-07T08:42:36.105Z,9.60
2022-09-07T08:47:53.915Z,8.97
2022-09-07T08:53:19.135Z,9.30
2022-09-07T08:58:48.795Z,8.50
2022-09-07T09:04:15.545Z,9.20
2022-09-07T09:09:10.115Z,9.57
2022-09-07T09:14:48.115Z,8.40
2022-09-07T09:20:02.295Z,8.40
2022-09-07T09:25:34.367Z,8.27
2022-09-07T09:30:41.456Z,7.80
2022-09-07T09:35:52.045Z,7.80
2022-09-07T09:41:11.276Z,8.20
2022-09-07T09:46:34.146Z,8.03
2022-09-07T09:56:55.866Z,8.07
2022-09-07T10:07:33.105Z,8.00
2022-09-07T10:12:42.285Z,8.23
2022-09-07T10:17:51.069Z,8.43
2022-09-07T10:23:00.896Z,7.77
2022-09-07T10:29:06.056Z,8.20
2022-09-07T10:39:27.096Z,7.93
2022-09-07T10:44:50.364Z,8.10
2022-09-07T10:50:25.880Z,8.13
2022-09-07T10:55:34.248Z,8.00
2022-09-07T11:00:45.688Z,7.73
2022-09-07T11:06:12.224Z,8.67
2022-09-07T11:12:03.446Z,8.33
2022-09-07T11:17:05.007Z,8.73
2022-09-07T11:22:56.565Z,8.63
2022-09-07T11:28:11.035Z,8.40
2022-09-07T11:33:27.605Z,8.37
2022-09-07T11:38:59.650Z,8.60
2022-09-07T11:44:16.489Z,8.63
2022-09-07T11:49:27.363Z,8.50
2022-09-07T11:54:48.859Z,8.67
2022-09-07T12:00:15.141Z,8.10
2022-09-07T12:05:59.498Z,8.30
2022-09-07T12:11:49.450Z,8.15
2022-09-07T12:17:21.779Z,8.47
2022-09-07T12:22:28.790Z,8.40
2022-09-07T12:27:39.370Z,7.73
2022-09-07T12:32:58.454Z,7.77
2022-09-07T12:38:21.400Z,8.10
2022-09-07T12:43:52.920Z,8.80
2022-09-07T12:49:09.849Z,9.30
2022-09-07T12:54:44.838Z,8.47
2022-09-07T13:00:13.625Z,8.53
2022-09-07T13:05:36.940Z,8.90
2022-09-07T13:10:47.969Z,8.50
2022-09-07T13:16:17.797Z,9.07
2022-09-07T13:21:40.720Z,8.37
2022-09-07T13:27:07.494Z,8.90
2022-09-07T13:37:55.829Z,9.00
2022-09-07T13:43:05.031Z,10.00
2022-09-07T13:48:31.451Z,6.23
2022-09-07T13:53:52.342Z,4.57
2022-09-07T13:58:59.568Z,5.93
2022-09-07T14:04:08.379Z,4.60
2022-09-07T14:09:25.553Z,4.33
2022-09-07T14:14:33.900Z,5.07
2022-09-07T14:19:52.429Z,5.00
2022-09-07T14:25:05.249Z,4.30
2022-09-07T14:30:30.975Z,3.87
2022-09-07T14:35:42.849Z,4.40
2022-09-07T14:40:51.571Z,4.03
2022-09-07T14:46:33.064Z,3.90
2022-09-07T14:51:44.580Z,3.60
2022-09-07T14:57:19.810Z,4.40
2022-09-07T15:02:32.222Z,4.73
2022-09-07T15:07:48.429Z,4.50
2022-09-07T15:12:58.810Z,5.40
2022-09-07T15:18:09.949Z,6.10
2022-09-07T15:23:19.817Z,5.90
2022-09-07T15:33:43.550Z,6.17
2022-09-07T15:39:06.078Z,6.43
2022-09-07T15:44:00.409Z,5.60
2022-09-07T15:49:07.598Z,6.47
2022-09-07T15:54:16.827Z,6.57
2022-09-07T15:59:24.220Z,5.00
2022-09-07T16:04:31.556Z,4.50
2022-09-07T16:09:38.633Z,4.27
2022-09-07T16:14:45.591Z,3.67
2022-09-07T16:19:52.519Z,4.03
2022-09-07T16:39:10.017Z,4.08
2022-09-07T16:44:17.085Z,3.33
2022-09-07T16:49:23.816Z,3.17
2022-09-07T16:54:32.389Z,3.37
2022-09-07T16:59:38.852Z,3.40
2022-09-07T17:04:46.714Z,3.53
2022-09-07T17:09:54.248Z,4.10
2022-09-07T17:15:00.995Z,3.60
2022-09-07T17:20:11.146Z,3.33
2022-09-07T17:25:17.836Z,2.93
2022-09-07T17:30:24.717Z,2.97
2022-09-07T17:35:37.241Z,4.43
2022-09-07T17:40:44.027Z,3.30
2022-09-07T17:45:52.850Z,3.57
2022-09-07T17:51:07.144Z,3.70
2022-09-07T17:56:17.219Z,3.40
2022-09-07T18:01:25.500Z,3.43
2022-09-07T18:06:32.288Z,4.57
2022-09-07T18:11:48.115Z,8.23
2022-09-07T18:16:51.504Z,8.60
2022-09-07T18:22:02.741Z,5.63
2022-09-07T18:27:10.356Z,4.67
2022-09-07T18:32:17.789Z,4.80
2022-09-07T18:37:27.272Z,5.20
2022-09-07T18:42:35.376Z,4.97
2022-09-07T18:47:43.751Z,4.57
2022-09-07T18:52:52.472Z,4.80
2022-09-07T18:57:58.905Z,4.13
2022-09-07T19:03:05.999Z,4.00
2022-09-07T19:08:14.239Z,3.90
2022-09-07T19:13:20.969Z,3.50
2022-09-07T19:18:27.786Z,3.57
2022-09-07T19:23:39.266Z,2.80
2022-09-07T19:28:55.417Z,2.57
2022-09-07T19:34:05.174Z,2.67
2022-09-07T19:39:14.419Z,2.37
2022-09-07T19:44:21.192Z,2.43
2022-09-07T19:49:27.982Z,1.90
2022-09-07T19:54:37.393Z,1.90
2022-09-07T19:59:45.639Z,1.97
2022-09-07T20:04:52.783Z,1.93
2022-09-07T20:10:00.519Z,2.30
2022-09-07T20:15:08.457Z,1.60
2022-09-07T20:20:17.455Z,1.60
2022-09-07T20:25:25.022Z,1.57
2022-09-07T20:30:33.832Z,1.77
2022-09-07T20:35:42.620Z,1.80
2022-09-07T20:40:59.810Z,1.83
2022-09-07T20:46:09.609Z,1.60
2022-09-07T20:51:22.123Z,1.70
2022-09-07T20:56:34.970Z,1.70
2022-09-07T21:01:42.670Z,1.80
2022-09-07T21:06:50.010Z,2.10
2022-09-07T21:11:58.091Z,1.90
2022-09-07T21:17:06.000Z,2.33
2022-09-07T21:22:13.320Z,1.80
2022-09-07T21:27:20.009Z,2.10
2022-09-07T21:32:26.683Z,2.30
2022-09-07T21:37:34.772Z,2.03
2022-09-07T21:42:41.873Z,2.50
2022-09-07T21:47:49.070Z,2.17
2022-09-07T21:52:57.876Z,2.00
2022-09-07T21:58:06.182Z,1.87
2022-09-07T22:03:13.037Z,1.90
2022-09-07T22:08:21.702Z,1.40
2022-09-07T22:13:29.764Z,2.00
2022-09-07T22:18:39.740Z,2.20
2022-09-07T22:23:53.795Z,2.47
2022-09-07T22:29:01.781Z,2.43
2022-09-07T22:34:10.899Z,2.80
2022-09-07T22:39:20.930Z,2.87
2022-09-07T22:44:30.124Z,2.63
2022-09-07T22:49:37.134Z,2.80
2022-09-07T22:54:44.220Z,2.60
2022-09-07T22:59:53.065Z,3.00
2022-09-07T23:05:00.343Z,2.73
2022-09-07T23:10:09.393Z,2.50
2022-09-07T23:15:16.916Z,2.87
2022-09-07T23:20:26.334Z,3.40
2022-09-07T23:25:33.802Z,2.60
2022-09-07T23:30:43.876Z,3.30
2022-09-07T23:36:03.711Z,2.13
2022-09-07T23:41:10.431Z,2.97
2022-09-07T23:46:19.052Z,3.20
2022-09-07T23:51:26.111Z,2.87
2022-09-07T23:56:36.652Z,3.20
